Pensacola, FL

7:22 AM CST on December 29, 2014 (GMT -0600)
east hills | Change Station
CLOSE
Current Station
Personal Weather Station
Location: Pensacola, FL
Elevation: 60 ft
Nearby Weather Stations

Elev 60 ft 30.43 °N, 87.20 °W | Updated 7 seconds ago

Overcast
Overcast
58.5 °F
Feels Like 58.5 °F
N
0.0
Wind Variable Wind from North
Gusts 0.0 mph

Today
High -- | Low -- °F
--% Chance of Precip.
Yesterday
High -- | Low -- °F
Precip. -- in
6:44 AM 4:57 PM
First Quarter, 59% visible
Pressure 30.09 in
Visibility 10.0 miles
Clouds Few 8000 ft
Overcast 9000 ft
Dew Point 57 °F
Humidity 94%
Rainfall 0.24 in
Snow Depth Not available.
UV 0 out of 12
Pollen 2.70 out of 12
Air Quality Not available.
Flu Activity Not available.
METAR KPNS 291253Z 00000KT 10SM FEW080 OVC090 14/14 A3008 RMK AO2 RAE1159 SLP188 P0000 T01440139

More Conditions Fewer Conditions

Pressure 30.09 in
Visibility 10.0 miles
Clouds Few 8000 ft
Overcast 9000 ft
Dew Point 57 °F
Humidity 94%
Rainfall 0.24 in
Snow Depth Not available.
UV 0 out of 12
Pollen 2.70 out of 12
Air Quality Not available.
Flu Activity Not available.
METAR KPNS 291253Z 00000KT 10SM FEW080 OVC090 14/14 A3008 RMK AO2 RAE1159 SLP188 P0000 T01440139

More Conditions Fewer Conditions

10-Day Weather Forecast

Almanac

Astronomy

Dec. 29, 2014 Rise Set
Actual Time
Civil Twilight
Nautical Twilight
Astronomical Twilight
Moon
Length of Visible Light
Length of Day
Tomorrow will be .
, % of the Moon is Illuminated

Today's Extremes

State Highs State Lows

Community

WunderPhotos

Upload Photos

1,781,579 photos uploaded!

WunderBlogs® & News

Nearby

Air Quality

  Air Quality AQ Index Pollutant
Not available.

Snow Depth

Station Depth Elevation

Earthquake Activity

City Distance Mag. Time & Date
Minimum magnitude displayed is 2.5.

Coastal Water Temperatures

Place Temperature

Nearby Weather Stations